createdAt,value
2023-03-29T00:02:04.659Z,101527.19
2023-03-29T00:05:10.573Z,101522.84
2023-03-29T00:08:14.602Z,101519.34
2023-03-29T00:11:17.631Z,101515.81
2023-03-29T00:14:20.248Z,101518.44
2023-03-29T00:17:22.865Z,101511.50
2023-03-29T00:20:27.026Z,101500.13
2023-03-29T00:23:29.638Z,101493.09
2023-03-29T00:26:32.229Z,101492.19
2023-03-29T00:29:35.075Z,101493.53
2023-03-29T00:32:37.920Z,101487.81
2023-03-29T00:35:42.418Z,101477.69
2023-03-29T00:38:45.367Z,101470.59
2023-03-29T00:41:48.117Z,101457.25
2023-03-29T00:45:00.064Z,101451.78
2023-03-29T00:48:06.359Z,101433.56
2023-03-29T00:51:13.155Z,101423.91
2023-03-29T00:54:18.644Z,101424.88
2023-03-29T00:57:25.239Z,101424.03
2023-03-29T01:00:33.137Z,101413.50
2023-03-29T01:03:46.140Z,101416.22
2023-03-29T01:06:57.894Z,101413.56
2023-03-29T01:10:06.422Z,101409.06
2023-03-29T01:13:12.368Z,101402.91
2023-03-29T01:16:18.763Z,101400.53
2023-03-29T01:19:26.390Z,101395.28
2023-03-29T01:22:39.114Z,101391.84
2023-03-29T01:25:48.926Z,101384.72
2023-03-29T01:28:59.900Z,101381.38
2023-03-29T01:32:06.025Z,101372.50
2023-03-29T01:35:14.298Z,101363.69
2023-03-29T01:38:22.680Z,101362.78
2023-03-29T01:41:35.475Z,101358.41
2023-03-29T01:44:48.555Z,101347.84
2023-03-29T01:47:57.631Z,101347.97
2023-03-29T01:51:07.029Z,101335.69
2023-03-29T01:54:15.748Z,101324.28
2023-03-29T01:57:21.620Z,101321.56
2023-03-29T02:00:29.481Z,101323.44
2023-03-29T02:03:34.341Z,101318.19
2023-03-29T02:06:39.627Z,101307.69
2023-03-29T02:09:44.595Z,101302.47
2023-03-29T02:12:47.702Z,101305.94
2023-03-29T02:15:51.647Z,101296.31
2023-03-29T02:18:57.840Z,101292.72
2023-03-29T02:22:05.777Z,101287.56
2023-03-29T02:25:09.592Z,101289.22
2023-03-29T02:28:13.010Z,101283.19
2023-03-29T02:31:24.789Z,101288.53
2023-03-29T02:34:30.731Z,101288.53
2023-03-29T02:37:36.306Z,101291.16
2023-03-29T02:40:41.094Z,101288.44
2023-03-29T02:43:46.081Z,101281.47
2023-03-29T02:46:51.982Z,101268.34
2023-03-29T02:49:55.265Z,101276.22
2023-03-29T02:53:01.701Z,101269.25
2023-03-29T02:56:04.662Z,101262.25
2023-03-29T02:59:07.237Z,101265.75
2023-03-29T03:02:11.695Z,101258.69
2023-03-29T03:05:14.392Z,101253.34
2023-03-29T03:08:16.990Z,101255.09
2023-03-29T03:11:19.570Z,101249.78
2023-03-29T03:14:23.196Z,101250.63
2023-03-29T03:17:27.186Z,101235.00
2023-03-29T03:20:31.027Z,101238.59
2023-03-29T03:23:33.652Z,101227.06
2023-03-29T03:26:38.146Z,101225.38
2023-03-29T03:29:41.482Z,101221.81
2023-03-29T03:32:45.536Z,101220.06
2023-03-29T03:35:48.199Z,101218.28
2023-03-29T03:38:50.834Z,101217.50
2023-03-29T03:41:53.415Z,101220.97
2023-03-29T03:44:56.489Z,101222.72
2023-03-29T03:48:00.603Z,101220.34
2023-03-29T03:51:03.541Z,101218.28
2023-03-29T03:54:06.874Z,101214.25
2023-03-29T03:57:09.497Z,101221.03
2023-03-29T04:00:18.907Z,101210.44
2023-03-29T04:03:24.001Z,101205.13
2023-03-29T04:06:30.430Z,101202.53
2023-03-29T04:09:34.213Z,101200.81
2023-03-29T04:12:37.173Z,101201.63
2023-03-29T04:15:39.857Z,101203.47
2023-03-29T04:18:43.922Z,101202.56
2023-03-29T04:21:49.093Z,101203.44
2023-03-29T04:24:51.703Z,101204.31
2023-03-29T04:27:54.306Z,101201.78
2023-03-29T04:30:56.932Z,101200.78
2023-03-29T04:34:01.107Z,101195.63
2023-03-29T04:37:09.920Z,101195.41
2023-03-29T04:40:14.963Z,101192.69
2023-03-29T04:43:17.591Z,101194.56
2023-03-29T04:46:20.238Z,101190.03
2023-03-29T04:49:26.007Z,101192.44
2023-03-29T04:52:32.899Z,101187.03
2023-03-29T04:55:35.594Z,101178.13
2023-03-29T04:58:38.185Z,101175.53
2023-03-29T05:01:40.800Z,101176.19
2023-03-29T05:04:44.872Z,101180.44
2023-03-29T05:07:47.878Z,101180.50
2023-03-29T05:10:50.850Z,101186.72
2023-03-29T05:13:55.540Z,101192.09
2023-03-29T05:16:58.610Z,101178.72
2023-03-29T05:20:09.050Z,101166.59
2023-03-29T05:23:12.476Z,101168.31
2023-03-29T05:26:15.431Z,101168.38
2023-03-29T05:29:18.379Z,101170.97
2023-03-29T05:32:20.967Z,101171.72
2023-03-29T05:35:26.205Z,101172.59
2023-03-29T05:38:29.704Z,101170.00
2023-03-29T05:41:32.296Z,101154.94
2023-03-29T05:44:35.099Z,101157.59
2023-03-29T05:47:37.753Z,101152.25
2023-03-29T05:50:42.790Z,101154.75
2023-03-29T05:53:46.213Z,101153.84
2023-03-29T05:56:48.828Z,101149.38
2023-03-29T05:59:51.444Z,101148.50
2023-03-29T06:02:59.271Z,101140.69
2023-03-29T06:06:08.806Z,101138.81
2023-03-29T06:09:11.547Z,101138.91
2023-03-29T06:12:14.162Z,101137.06
2023-03-29T06:15:17.282Z,101138.34
2023-03-29T06:18:20.103Z,101142.34
2023-03-29T06:21:26.477Z,101139.34
2023-03-29T06:24:29.081Z,101136.88
2023-03-29T06:27:31.878Z,101140.47
2023-03-29T06:30:34.489Z,101149.28
2023-03-29T06:33:38.176Z,101148.91
2023-03-29T06:36:42.286Z,101146.31
2023-03-29T06:39:44.987Z,101150.38
2023-03-29T06:42:47.920Z,101157.72
2023-03-29T06:45:50.530Z,101146.25
2023-03-29T06:48:53.329Z,101144.00
2023-03-29T06:51:57.966Z,101148.78
2023-03-29T06:55:01.692Z,101145.72
2023-03-29T06:58:04.380Z,101153.97
2023-03-29T07:01:07.619Z,101158.81
2023-03-29T07:04:10.256Z,101143.84
2023-03-29T07:07:20.099Z,101148.16
2023-03-29T07:10:23.912Z,101150.72
2023-03-29T07:13:27.589Z,101151.78
2023-03-29T07:16:30.264Z,101153.16
2023-03-29T07:19:33.159Z,101144.38
2023-03-29T07:22:37.406Z,101157.84
2023-03-29T07:25:40.982Z,101146.91
2023-03-29T07:28:43.651Z,101144.81
2023-03-29T07:31:46.241Z,101145.31
2023-03-29T07:34:49.301Z,101142.00
2023-03-29T07:37:54.892Z,101140.47
2023-03-29T07:40:57.657Z,101140.22
2023-03-29T07:44:04.911Z,101148.28
2023-03-29T07:47:07.488Z,101140.31
2023-03-29T07:50:11.111Z,101137.13
2023-03-29T07:53:15.829Z,101142.03
2023-03-29T07:56:18.746Z,101140.97
2023-03-29T07:59:21.564Z,101136.13
2023-03-29T08:02:24.196Z,101133.69
2023-03-29T08:05:40.231Z,101126.38
2023-03-29T08:08:45.206Z,101131.47
2023-03-29T08:11:47.792Z,101130.16
2023-03-29T08:14:50.425Z,101128.78
2023-03-29T08:17:53.035Z,101125.84
2023-03-29T08:20:55.661Z,101127.84
2023-03-29T08:23:59.693Z,101127.31
2023-03-29T08:27:02.279Z,101126.94
2023-03-29T08:30:06.532Z,101123.50
2023-03-29T08:33:09.158Z,101118.31
2023-03-29T08:36:12.378Z,101122.44
2023-03-29T08:39:16.894Z,101120.97
2023-03-29T08:42:37.743Z,101121.38
2023-03-29T08:45:52.065Z,101117.16
2023-03-29T08:49:00.317Z,101113.69
2023-03-29T08:52:07.393Z,101117.13
2023-03-29T08:55:27.969Z,101110.03
2023-03-29T08:58:34.571Z,101103.78
2023-03-29T09:01:38.241Z,101099.66
2023-03-29T09:04:42.429Z,101107.53
2023-03-29T09:07:45.107Z,101105.31
2023-03-29T09:10:59.421Z,101104.75
2023-03-29T09:14:20.326Z,101105.09
2023-03-29T09:17:35.799Z,101087.09
2023-03-29T09:20:48.681Z,101089.75
2023-03-29T09:24:16.508Z,101086.94
2023-03-29T09:27:27.614Z,101092.72
2023-03-29T09:30:36.334Z,101086.59
2023-03-29T09:33:43.548Z,101084.03
2023-03-29T09:36:52.696Z,101084.81
2023-03-29T09:39:57.556Z,101084.19
2023-03-29T09:43:04.475Z,101084.16
2023-03-29T09:46:15.948Z,101081.72
2023-03-29T09:49:23.633Z,101075.84
2023-03-29T09:52:26.337Z,101072.66
2023-03-29T09:55:32.237Z,101068.41
2023-03-29T09:58:37.684Z,101063.03
2023-03-29T10:01:42.475Z,101058.84
2023-03-29T10:04:45.125Z,101053.41
2023-03-29T10:07:51.644Z,101049.00
2023-03-29T10:10:54.755Z,101040.88
2023-03-29T10:14:03.759Z,101042.13
2023-03-29T10:17:11.980Z,101046.19
2023-03-29T10:20:18.305Z,101041.84
2023-03-29T10:23:21.148Z,101047.06
2023-03-29T10:26:28.362Z,101041.16
2023-03-29T10:29:39.704Z,101044.78
2023-03-29T10:32:42.678Z,101043.75
2023-03-29T10:35:45.809Z,101040.84
2023-03-29T10:38:48.836Z,101041.66
2023-03-29T10:41:53.087Z,101041.78
2023-03-29T10:44:59.445Z,101035.94
2023-03-29T10:48:06.783Z,101040.69
2023-03-29T10:51:09.419Z,101036.31
2023-03-29T10:54:14.670Z,101040.38
2023-03-29T10:57:27.971Z,101026.47
2023-03-29T11:00:38.195Z,101041.50
2023-03-29T11:03:56.189Z,101041.84
2023-03-29T11:07:19.936Z,101043.47
2023-03-29T11:10:38.369Z,101036.34
2023-03-29T11:13:49.885Z,101018.84
2023-03-29T11:17:07.508Z,101013.09
2023-03-29T11:20:23.944Z,101005.78
2023-03-29T11:23:40.286Z,101006.34
2023-03-29T11:26:56.829Z,101004.94
2023-03-29T11:30:10.008Z,101009.06
2023-03-29T11:33:28.830Z,100998.78
2023-03-29T11:36:44.475Z,101006.03
2023-03-29T11:39:58.904Z,101012.72
2023-03-29T11:43:05.548Z,101012.50
2023-03-29T11:46:13.032Z,101005.94
2023-03-29T11:49:23.225Z,101004.31
2023-03-29T11:52:31.113Z,101010.44
2023-03-29T11:55:38.097Z,101014.63
2023-03-29T11:58:45.708Z,101012.66
2023-03-29T12:01:53.623Z,101012.50
2023-03-29T12:05:02.254Z,101010.44
2023-03-29T12:08:08.891Z,101017.34
2023-03-29T12:11:17.638Z,101005.16
2023-03-29T12:14:28.089Z,101013.44
2023-03-29T12:17:35.245Z,101010.13
2023-03-29T12:20:42.070Z,101000.56
2023-03-29T12:23:46.360Z,101002.16
2023-03-29T12:27:08.308Z,101003.63
2023-03-29T12:30:30.810Z,101000.78
2023-03-29T12:34:10.432Z,101001.84
2023-03-29T12:37:33.300Z,100988.94
2023-03-29T12:40:43.158Z,100993.38
2023-03-29T12:43:47.144Z,100988.66
2023-03-29T12:46:53.051Z,100987.81
2023-03-29T12:49:57.992Z,100995.28
2023-03-29T12:53:06.893Z,100989.75
2023-03-29T12:56:13.816Z,101004.38
2023-03-29T12:59:27.292Z,100991.56
2023-03-29T13:02:38.288Z,100983.78
2023-03-29T13:05:41.951Z,100983.47
2023-03-29T13:08:46.061Z,100984.13
2023-03-29T13:11:53.592Z,100979.78
2023-03-29T13:14:58.909Z,100980.09
2023-03-29T13:18:17.352Z,100979.69
2023-03-29T13:21:30.257Z,100982.50
2023-03-29T13:24:49.790Z,100970.28
2023-03-29T13:27:57.740Z,100970.84
2023-03-29T13:31:05.275Z,100959.72
2023-03-29T13:34:22.326Z,100971.53
2023-03-29T13:37:34.681Z,100969.25
2023-03-29T13:40:48.013Z,100954.25
2023-03-29T13:43:54.656Z,100950.81
2023-03-29T13:47:06.520Z,100953.63
2023-03-29T13:50:17.792Z,100963.56
2023-03-29T13:53:28.460Z,100959.81
2023-03-29T13:56:39.398Z,100954.59
2023-03-29T13:59:50.236Z,100957.53
2023-03-29T14:02:56.247Z,100952.00
2023-03-29T14:06:01.400Z,100950.75
2023-03-29T14:09:08.694Z,100944.09
2023-03-29T14:12:15.668Z,100940.63
2023-03-29T14:15:23.707Z,100930.00
2023-03-29T14:18:29.424Z,100917.72
2023-03-29T14:21:32.301Z,100920.38
2023-03-29T14:24:39.422Z,100908.31
2023-03-29T14:27:43.873Z,100905.59
2023-03-29T14:30:47.911Z,100904.22
2023-03-29T14:33:53.521Z,100905.50
2023-03-29T14:36:56.544Z,100906.22
2023-03-29T14:39:59.949Z,100908.53
2023-03-29T14:43:08.452Z,100902.22
2023-03-29T14:46:12.993Z,100903.41
2023-03-29T14:49:17.522Z,100897.56
2023-03-29T14:52:20.949Z,100903.47
2023-03-29T14:55:24.834Z,100906.28
2023-03-29T14:58:32.717Z,100910.53
2023-03-29T15:01:44.968Z,100909.53
2023-03-29T15:04:57.139Z,100910.28
2023-03-29T15:08:00.014Z,100899.31
2023-03-29T15:11:03.853Z,100912.25
2023-03-29T15:14:10.125Z,100906.44
2023-03-29T15:17:36.288Z,100908.66
2023-03-29T15:20:51.309Z,100903.53
2023-03-29T15:23:56.852Z,100905.81
2023-03-29T15:27:03.203Z,100905.47
2023-03-29T15:30:14.862Z,100896.22
2023-03-29T15:33:21.348Z,100889.16
2023-03-29T15:36:24.062Z,100888.91
2023-03-29T15:39:28.599Z,100882.56
2023-03-29T15:42:31.428Z,100876.72
2023-03-29T15:45:36.060Z,100875.00
2023-03-29T15:48:38.813Z,100869.00
2023-03-29T15:51:42.240Z,100866.41
2023-03-29T15:54:45.054Z,100858.19
2023-03-29T15:57:49.655Z,100856.06
2023-03-29T16:00:56.638Z,100850.16
2023-03-29T16:03:59.277Z,100844.03
2023-03-29T16:07:02.148Z,100842.66
2023-03-29T16:10:05.102Z,100840.25
2023-03-29T16:13:08.163Z,100842.78
2023-03-29T16:16:12.586Z,100835.03
2023-03-29T16:19:15.411Z,100833.94
2023-03-29T16:22:17.991Z,100829.22
2023-03-29T16:25:23.669Z,100831.84
2023-03-29T16:28:26.460Z,100828.25
2023-03-29T16:31:30.400Z,100834.47
2023-03-29T16:34:33.012Z,100831.53
2023-03-29T16:37:35.639Z,100840.25
2023-03-29T16:40:38.489Z,100839.25
2023-03-29T16:43:41.076Z,100837.47
2023-03-29T16:46:45.528Z,100832.28
2023-03-29T16:49:48.628Z,100826.91
2023-03-29T16:52:52.561Z,100833.34
2023-03-29T16:55:55.273Z,100842.69
2023-03-29T16:58:57.846Z,100839.69
2023-03-29T17:02:01.835Z,100838.41
2023-03-29T17:05:04.662Z,100839.84
2023-03-29T17:08:08.903Z,100832.75
2023-03-29T17:11:11.789Z,100843.84
2023-03-29T17:14:14.461Z,100831.38
2023-03-29T17:17:18.383Z,100835.16
2023-03-29T17:20:21.012Z,100831.56
2023-03-29T17:23:24.257Z,100833.94
2023-03-29T17:26:27.014Z,100831.16
2023-03-29T17:29:29.601Z,100830.31
2023-03-29T17:32:33.729Z,100824.91
2023-03-29T17:35:36.411Z,100826.56
2023-03-29T17:38:39.023Z,100818.31
2023-03-29T17:41:42.017Z,100816.81
2023-03-29T17:44:44.608Z,100821.78
2023-03-29T17:47:48.555Z,100817.03
2023-03-29T17:50:51.349Z,100818.34
2023-03-29T17:53:54.738Z,100826.78
2023-03-29T17:56:57.432Z,100816.91
2023-03-29T18:00:00.211Z,100817.34
2023-03-29T18:03:04.319Z,100819.53
2023-03-29T18:06:07.614Z,100821.41
2023-03-29T18:09:10.610Z,100823.47
2023-03-29T18:12:13.258Z,100821.41
2023-03-29T18:15:16.186Z,100817.94
2023-03-29T18:18:20.133Z,100819.13
2023-03-29T18:21:22.803Z,100814.16
2023-03-29T18:24:25.519Z,100812.03
2023-03-29T18:27:28.098Z,100805.53
2023-03-29T18:30:30.800Z,100808.00
2023-03-29T18:33:36.085Z,100808.00
2023-03-29T18:36:38.729Z,100800.81
2023-03-29T18:39:42.970Z,100793.66
2023-03-29T18:42:45.570Z,100797.88
2023-03-29T18:45:48.330Z,100796.78
2023-03-29T18:48:53.382Z,100806.66
2023-03-29T18:51:56.711Z,100802.41
2023-03-29T18:54:59.303Z,100799.22
2023-03-29T18:58:01.886Z,100801.13
2023-03-29T19:01:06.424Z,100800.00
2023-03-29T19:04:10.658Z,100804.13
2023-03-29T19:07:13.370Z,100803.50
2023-03-29T19:10:16.016Z,100809.41
2023-03-29T19:13:19.117Z,100805.41
2023-03-29T19:16:22.099Z,100803.28
2023-03-29T19:19:27.120Z,100792.63
2023-03-29T19:22:29.807Z,100797.69
2023-03-29T19:25:33.107Z,100784.22
2023-03-29T19:28:36.451Z,100779.09
2023-03-29T19:31:39.126Z,100797.09
2023-03-29T19:34:43.147Z,100790.00
2023-03-29T19:37:45.847Z,100798.16
2023-03-29T19:40:49.081Z,100798.03
2023-03-29T19:43:51.669Z,100796.44
2023-03-29T19:46:54.503Z,100791.13
2023-03-29T19:49:59.476Z,100787.00
2023-03-29T19:53:02.035Z,100777.72
2023-03-29T19:56:06.323Z,100775.72
2023-03-29T19:59:10.939Z,100766.75
2023-03-29T20:02:13.943Z,100772.16
2023-03-29T20:05:18.147Z,100766.94
2023-03-29T20:08:20.910Z,100774.66
2023-03-29T20:11:24.147Z,100761.13
2023-03-29T20:14:26.820Z,100755.81
2023-03-29T20:17:29.762Z,100751.69
2023-03-29T20:20:35.557Z,100747.19
2023-03-29T20:23:38.757Z,100747.50
2023-03-29T20:26:41.377Z,100746.25
2023-03-29T20:29:43.967Z,100741.19
2023-03-29T20:32:46.729Z,100731.75
2023-03-29T20:35:50.880Z,100728.06
2023-03-29T20:38:55.873Z,100716.53
2023-03-29T20:41:58.965Z,100721.59
2023-03-29T20:45:01.898Z,100709.47
2023-03-29T20:48:04.691Z,100701.13
2023-03-29T20:51:10.063Z,100699.88
2023-03-29T20:54:12.654Z,100695.75
2023-03-29T20:57:17.525Z,100694.44
2023-03-29T21:00:20.733Z,100689.94
2023-03-29T21:03:23.508Z,100696.44
2023-03-29T21:06:28.102Z,100689.75
2023-03-29T21:09:31.014Z,100683.69
2023-03-29T21:12:33.675Z,100680.28
2023-03-29T21:15:36.756Z,100677.78
2023-03-29T21:18:41.627Z,100680.06
2023-03-29T21:21:47.398Z,100671.28
2023-03-29T21:24:50.002Z,100671.47
2023-03-29T21:27:52.589Z,100667.19
2023-03-29T21:30:55.217Z,100658.34
2023-03-29T21:33:57.946Z,100658.00
2023-03-29T21:37:01.886Z,100654.66
2023-03-29T21:40:07.152Z,100651.03
2023-03-29T21:43:10.378Z,100644.09
2023-03-29T21:46:13.527Z,100637.59
2023-03-29T21:49:16.149Z,100640.44
2023-03-29T21:52:20.209Z,100643.81
2023-03-29T21:55:22.799Z,100637.78
2023-03-29T21:58:25.380Z,100640.44
2023-03-29T22:01:28.293Z,100637.38
2023-03-29T22:04:36.907Z,100640.75
2023-03-29T22:07:41.657Z,100631.75
2023-03-29T22:10:44.251Z,100626.59
2023-03-29T22:13:47.527Z,100615.97
2023-03-29T22:16:50.155Z,100613.47
2023-03-29T22:19:52.955Z,100609.13
2023-03-29T22:22:56.950Z,100610.00
2023-03-29T22:25:59.571Z,100600.59
2023-03-29T22:29:02.164Z,100590.44
2023-03-29T22:32:04.977Z,100592.09
2023-03-29T22:35:08.228Z,100584.69
2023-03-29T22:38:12.157Z,100589.09
2023-03-29T22:41:15.729Z,100589.88
2023-03-29T22:44:18.348Z,100586.72
2023-03-29T22:47:21.131Z,100578.41
2023-03-29T22:50:23.732Z,100571.28
2023-03-29T22:53:28.087Z,100565.03
2023-03-29T22:56:30.989Z,100555.38
2023-03-29T22:59:33.549Z,100550.56
2023-03-29T23:02:36.491Z,100543.81
2023-03-29T23:05:39.135Z,100532.22
2023-03-29T23:08:43.269Z,100534.31
2023-03-29T23:11:45.864Z,100536.25
2023-03-29T23:14:48.435Z,100536.81
2023-03-29T23:17:51.023Z,100529.94
2023-03-29T23:20:56.469Z,100527.50
2023-03-29T23:24:00.528Z,100518.72
2023-03-29T23:27:04.770Z,100501.25
2023-03-29T23:30:08.822Z,100491.56
2023-03-29T23:33:11.633Z,100480.59
2023-03-29T23:36:17.172Z,100476.56
2023-03-29T23:39:21.095Z,100473.59
2023-03-29T23:42:23.695Z,100474.44
2023-03-29T23:45:27.753Z,100483.19
2023-03-29T23:48:31.540Z,100473.50
2023-03-29T23:51:35.001Z,100467.19
2023-03-29T23:54:38.995Z,100457.72
2023-03-29T23:57:42.016Z,100450.03
